sensor_id;sensor_type;location;lat;lon;timestamp;P1;durP1;ratioP1;P2;durP2;ratioP2
59008;SDS011;44794;42.652;23.318;2022-09-17T00:02:19;19.92;;;11.77;;
59008;SDS011;44794;42.652;23.318;2022-09-17T00:04:47;20.30;;;12.02;;
59008;SDS011;44794;42.652;23.318;2022-09-17T00:07:13;22.42;;;10.73;;
59008;SDS011;44794;42.652;23.318;2022-09-17T00:09:39;17.65;;;10.68;;
59008;SDS011;44794;42.652;23.318;2022-09-17T00:12:05;15.90;;;10.15;;
59008;SDS011;44794;42.652;23.318;2022-09-17T00:14:30;24.48;;;10.70;;
59008;SDS011;44794;42.652;23.318;2022-09-17T00:16:56;19.02;;;11.23;;
59008;SDS011;44794;42.652;23.318;2022-09-17T00:19:21;23.38;;;9.45;;
59008;SDS011;44794;42.652;23.318;2022-09-17T00:21:48;16.30;;;9.80;;
59008;SDS011;44794;42.652;23.318;2022-09-17T00:24:14;23.42;;;9.77;;
59008;SDS011;44794;42.652;23.318;2022-09-17T00:26:41;18.85;;;9.98;;
59008;SDS011;44794;42.652;23.318;2022-09-17T00:29:06;18.73;;;9.02;;
59008;SDS011;44794;42.652;23.318;2022-09-17T00:31:33;15.85;;;8.80;;
59008;SDS011;44794;42.652;23.318;2022-09-17T00:33:59;18.23;;;8.82;;
59008;SDS011;44794;42.652;23.318;2022-09-17T00:36:25;17.63;;;8.55;;
59008;SDS011;44794;42.652;23.318;2022-09-17T00:38:52;15.82;;;8.30;;
59008;SDS011;44794;42.652;23.318;2022-09-17T00:41:19;16.13;;;8.90;;
59008;SDS011;44794;42.652;23.318;2022-09-17T00:43:47;19.75;;;9.15;;
59008;SDS011;44794;42.652;23.318;2022-09-17T00:46:21;13.98;;;8.02;;
59008;SDS011;44794;42.652;23.318;2022-09-17T00:48:51;18.85;;;8.20;;
59008;SDS011;44794;42.652;23.318;2022-09-17T00:51:20;13.93;;;8.68;;
59008;SDS011;44794;42.652;23.318;2022-09-17T00:53:49;16.85;;;9.38;;
59008;SDS011;44794;42.652;23.318;2022-09-17T00:56:20;16.35;;;8.98;;
59008;SDS011;44794;42.652;23.318;2022-09-17T00:58:48;14.60;;;8.77;;
59008;SDS011;44794;42.652;23.318;2022-09-17T01:01:16;15.30;;;8.73;;
59008;SDS011;44794;42.652;23.318;2022-09-17T01:03:42;18.95;;;9.55;;
59008;SDS011;44794;42.652;23.318;2022-09-17T01:09:09;21.52;;;9.45;;
59008;SDS011;44794;42.652;23.318;2022-09-17T01:29:33;22.45;;;11.27;;
59008;SDS011;44794;42.652;23.318;2022-09-17T01:34:23;22.08;;;11.85;;
59008;SDS011;44794;42.652;23.318;2022-09-17T01:39:38;23.30;;;12.18;;
59008;SDS011;44794;42.652;23.318;2022-09-17T01:42:33;23.33;;;12.52;;
59008;SDS011;44794;42.652;23.318;2022-09-17T01:50:54;20.48;;;11.38;;
59008;SDS011;44794;42.652;23.318;2022-09-17T01:56:18;20.83;;;11.18;;
59008;SDS011;44794;42.652;23.318;2022-09-17T01:59:23;18.00;;;11.05;;
59008;SDS011;44794;42.652;23.318;2022-09-17T02:01:45;17.15;;;10.55;;
59008;SDS011;44794;42.652;23.318;2022-09-17T02:04:17;19.65;;;11.07;;
59008;SDS011;44794;42.652;23.318;2022-09-17T02:06:49;22.88;;;11.20;;
59008;SDS011;44794;42.652;23.318;2022-09-17T02:09:23;19.58;;;11.55;;
59008;SDS011;44794;42.652;23.318;2022-09-17T02:11:56;19.75;;;11.20;;
59008;SDS011;44794;42.652;23.318;2022-09-17T02:14:27;22.40;;;12.33;;
59008;SDS011;44794;42.652;23.318;2022-09-17T02:17:00;18.58;;;11.38;;
59008;SDS011;44794;42.652;23.318;2022-09-17T02:19:31;18.85;;;11.25;;
59008;SDS011;44794;42.652;23.318;2022-09-17T02:22:16;18.25;;;10.73;;
59008;SDS011;44794;42.652;23.318;2022-09-17T02:27:45;20.17;;;10.63;;
59008;SDS011;44794;42.652;23.318;2022-09-17T02:30:33;18.08;;;9.57;;
59008;SDS011;44794;42.652;23.318;2022-09-17T02:33:00;18.80;;;9.65;;
59008;SDS011;44794;42.652;23.318;2022-09-17T02:35:29;18.15;;;10.10;;
59008;SDS011;44794;42.652;23.318;2022-09-17T02:37:57;13.82;;;8.95;;
59008;SDS011;44794;42.652;23.318;2022-09-17T02:40:23;14.93;;;8.98;;
59008;SDS011;44794;42.652;23.318;2022-09-17T02:43:07;16.05;;;9.07;;
59008;SDS011;44794;42.652;23.318;2022-09-17T02:46:03;18.33;;;8.93;;
59008;SDS011;44794;42.652;23.318;2022-09-17T02:51:19;14.73;;;9.55;;
59008;SDS011;44794;42.652;23.318;2022-09-17T02:56:28;21.48;;;10.68;;
59008;SDS011;44794;42.652;23.318;2022-09-17T02:59:16;16.52;;;9.70;;
59008;SDS011;44794;42.652;23.318;2022-09-17T03:04:49;15.95;;;11.32;;
59008;SDS011;44794;42.652;23.318;2022-09-17T03:07:16;18.35;;;11.27;;
59008;SDS011;44794;42.652;23.318;2022-09-17T03:09:42;19.35;;;11.60;;
59008;SDS011;44794;42.652;23.318;2022-09-17T03:12:09;17.77;;;12.07;;
59008;SDS011;44794;42.652;23.318;2022-09-17T03:14:35;20.73;;;12.18;;
59008;SDS011;44794;42.652;23.318;2022-09-17T03:17:01;19.83;;;10.88;;
59008;SDS011;44794;42.652;23.318;2022-09-17T03:19:26;16.08;;;10.50;;
59008;SDS011;44794;42.652;23.318;2022-09-17T03:21:52;15.95;;;10.05;;
59008;SDS011;44794;42.652;23.318;2022-09-17T03:24:17;15.45;;;10.05;;
59008;SDS011;44794;42.652;23.318;2022-09-17T03:26:43;16.92;;;10.55;;
59008;SDS011;44794;42.652;23.318;2022-09-17T03:29:08;22.00;;;13.25;;
59008;SDS011;44794;42.652;23.318;2022-09-17T03:31:34;18.35;;;11.90;;
59008;SDS011;44794;42.652;23.318;2022-09-17T03:33:59;19.33;;;11.77;;
59008;SDS011;44794;42.652;23.318;2022-09-17T03:36:24;20.60;;;10.73;;
59008;SDS011;44794;42.652;23.318;2022-09-17T03:38:54;16.02;;;11.00;;
59008;SDS011;44794;42.652;23.318;2022-09-17T03:41:20;16.98;;;10.02;;
59008;SDS011;44794;42.652;23.318;2022-09-17T03:43:46;14.10;;;8.80;;
59008;SDS011;44794;42.652;23.318;2022-09-17T03:46:11;11.55;;;8.93;;
59008;SDS011;44794;42.652;23.318;2022-09-17T03:48:37;17.10;;;9.27;;
59008;SDS011;44794;42.652;23.318;2022-09-17T03:51:03;13.68;;;8.88;;
59008;SDS011;44794;42.652;23.318;2022-09-17T03:53:30;14.15;;;8.50;;
59008;SDS011;44794;42.652;23.318;2022-09-17T03:55:59;14.65;;;8.02;;
59008;SDS011;44794;42.652;23.318;2022-09-17T03:58:27;14.48;;;7.32;;
59008;SDS011;44794;42.652;23.318;2022-09-17T04:00:53;13.35;;;7.20;;
59008;SDS011;44794;42.652;23.318;2022-09-17T04:03:21;13.23;;;6.78;;
59008;SDS011;44794;42.652;23.318;2022-09-17T04:05:50;12.55;;;6.65;;
59008;SDS011;44794;42.652;23.318;2022-09-17T04:08:16;10.20;;;6.65;;
59008;SDS011;44794;42.652;23.318;2022-09-17T04:10:42;13.68;;;6.80;;
59008;SDS011;44794;42.652;23.318;2022-09-17T04:13:09;11.25;;;6.65;;
59008;SDS011;44794;42.652;23.318;2022-09-17T04:15:35;10.73;;;6.53;;
59008;SDS011;44794;42.652;23.318;2022-09-17T04:18:00;10.60;;;6.55;;
59008;SDS011;44794;42.652;23.318;2022-09-17T04:20:25;11.02;;;7.03;;
59008;SDS011;44794;42.652;23.318;2022-09-17T04:22:52;11.10;;;7.28;;
59008;SDS011;44794;42.652;23.318;2022-09-17T04:25:18;10.75;;;6.45;;
59008;SDS011;44794;42.652;23.318;2022-09-17T04:27:44;11.60;;;6.55;;
59008;SDS011;44794;42.652;23.318;2022-09-17T04:30:10;12.88;;;6.80;;
59008;SDS011;44794;42.652;23.318;2022-09-17T04:32:36;11.40;;;7.28;;
59008;SDS011;44794;42.652;23.318;2022-09-17T04:35:02;14.23;;;7.10;;
59008;SDS011;44794;42.652;23.318;2022-09-17T04:37:28;10.80;;;6.72;;
59008;SDS011;44794;42.652;23.318;2022-09-17T04:39:54;14.57;;;7.70;;
59008;SDS011;44794;42.652;23.318;2022-09-17T04:42:19;12.73;;;7.85;;
59008;SDS011;44794;42.652;23.318;2022-09-17T04:44:44;12.45;;;7.93;;
59008;SDS011;44794;42.652;23.318;2022-09-17T04:47:10;15.32;;;7.95;;
59008;SDS011;44794;42.652;23.318;2022-09-17T04:49:35;14.75;;;8.30;;
59008;SDS011;44794;42.652;23.318;2022-09-17T04:52:01;15.50;;;8.50;;
59008;SDS011;44794;42.652;23.318;2022-09-17T04:54:26;14.30;;;8.90;;
59008;SDS011;44794;42.652;23.318;2022-09-17T04:56:52;16.50;;;9.38;;
59008;SDS011;44794;42.652;23.318;2022-09-17T04:59:17;13.10;;;8.55;;
59008;SDS011;44794;42.652;23.318;2022-09-17T05:01:43;15.73;;;9.70;;
59008;SDS011;44794;42.652;23.318;2022-09-17T05:04:09;16.50;;;10.18;;
59008;SDS011;44794;42.652;23.318;2022-09-17T05:06:34;18.95;;;10.15;;
59008;SDS011;44794;42.652;23.318;2022-09-17T05:09:00;16.00;;;10.10;;
59008;SDS011;44794;42.652;23.318;2022-09-17T05:11:26;14.35;;;9.60;;
59008;SDS011;44794;42.652;23.318;2022-09-17T05:13:53;16.95;;;9.05;;
59008;SDS011;44794;42.652;23.318;2022-09-17T05:16:18;14.70;;;7.90;;
59008;SDS011;44794;42.652;23.318;2022-09-17T05:18:44;11.25;;;5.93;;
59008;SDS011;44794;42.652;23.318;2022-09-17T05:21:10;14.90;;;4.97;;
59008;SDS011;44794;42.652;23.318;2022-09-17T05:23:35;10.60;;;4.97;;
59008;SDS011;44794;42.652;23.318;2022-09-17T05:26:01;13.70;;;5.25;;
59008;SDS011;44794;42.652;23.318;2022-09-17T05:28:27;8.40;;;4.28;;
59008;SDS011;44794;42.652;23.318;2022-09-17T05:30:52;13.80;;;5.03;;
59008;SDS011;44794;42.652;23.318;2022-09-17T05:33:18;16.75;;;6.20;;
59008;SDS011;44794;42.652;23.318;2022-09-17T05:35:44;14.60;;;6.30;;
59008;SDS011;44794;42.652;23.318;2022-09-17T05:38:09;13.02;;;6.30;;
59008;SDS011;44794;42.652;23.318;2022-09-17T05:40:35;14.95;;;6.18;;
59008;SDS011;44794;42.652;23.318;2022-09-17T05:43:03;11.90;;;6.68;;
59008;SDS011;44794;42.652;23.318;2022-09-17T05:45:31;12.82;;;6.30;;
59008;SDS011;44794;42.652;23.318;2022-09-17T05:47:59;18.33;;;6.68;;
59008;SDS011;44794;42.652;23.318;2022-09-17T05:50:26;16.40;;;6.70;;
59008;SDS011;44794;42.652;23.318;2022-09-17T05:52:53;17.05;;;6.38;;
59008;SDS011;44794;42.652;23.318;2022-09-17T05:55:19;15.88;;;5.93;;
59008;SDS011;44794;42.652;23.318;2022-09-17T05:57:46;12.60;;;5.75;;
59008;SDS011;44794;42.652;23.318;2022-09-17T06:00:12;7.28;;;5.28;;
59008;SDS011;44794;42.652;23.318;2022-09-17T06:02:38;16.08;;;6.47;;
59008;SDS011;44794;42.652;23.318;2022-09-17T06:05:04;14.05;;;6.50;;
59008;SDS011;44794;42.652;23.318;2022-09-17T06:07:29;13.68;;;6.97;;
59008;SDS011;44794;42.652;23.318;2022-09-17T06:09:55;13.68;;;7.00;;
59008;SDS011;44794;42.652;23.318;2022-09-17T06:12:21;5.80;;;1.70;;
59008;SDS011;44794;42.652;23.318;2022-09-17T06:14:46;10.60;;;4.38;;
59008;SDS011;44794;42.652;23.318;2022-09-17T06:17:12;12.57;;;5.15;;
59008;SDS011;44794;42.652;23.318;2022-09-17T06:19:37;12.13;;;5.20;;
59008;SDS011;44794;42.652;23.318;2022-09-17T06:22:03;12.63;;;4.53;;
59008;SDS011;44794;42.652;23.318;2022-09-17T06:24:30;9.23;;;3.05;;
59008;SDS011;44794;42.652;23.318;2022-09-17T06:26:56;12.80;;;5.90;;
59008;SDS011;44794;42.652;23.318;2022-09-17T06:29:22;15.57;;;6.60;;
59008;SDS011;44794;42.652;23.318;2022-09-17T06:31:47;12.63;;;6.80;;
59008;SDS011;44794;42.652;23.318;2022-09-17T06:34:13;18.73;;;7.22;;
59008;SDS011;44794;42.652;23.318;2022-09-17T06:36:39;12.68;;;7.50;;
59008;SDS011;44794;42.652;23.318;2022-09-17T06:39:04;17.85;;;7.78;;
59008;SDS011;44794;42.652;23.318;2022-09-17T06:41:30;18.45;;;7.38;;
59008;SDS011;44794;42.652;23.318;2022-09-17T06:43:56;17.17;;;7.57;;
59008;SDS011;44794;42.652;23.318;2022-09-17T06:46:21;13.95;;;6.50;;
59008;SDS011;44794;42.652;23.318;2022-09-17T06:48:47;17.95;;;7.75;;
59008;SDS011;44794;42.652;23.318;2022-09-17T06:51:12;18.42;;;8.80;;
59008;SDS011;44794;42.652;23.318;2022-09-17T06:53:38;18.33;;;9.30;;
59008;SDS011;44794;42.652;23.318;2022-09-17T06:56:05;21.10;;;9.75;;
59008;SDS011;44794;42.652;23.318;2022-09-17T06:58:33;18.60;;;9.38;;
59008;SDS011;44794;42.652;23.318;2022-09-17T07:01:01;16.15;;;9.23;;
59008;SDS011;44794;42.652;23.318;2022-09-17T07:03:27;19.23;;;9.15;;
59008;SDS011;44794;42.652;23.318;2022-09-17T07:05:54;16.17;;;9.43;;
59008;SDS011;44794;42.652;23.318;2022-09-17T07:08:19;18.58;;;8.93;;
59008;SDS011;44794;42.652;23.318;2022-09-17T07:10:45;17.80;;;9.32;;
59008;SDS011;44794;42.652;23.318;2022-09-17T07:13:10;15.63;;;8.80;;
59008;SDS011;44794;42.652;23.318;2022-09-17T07:15:35;22.52;;;9.35;;
59008;SDS011;44794;42.652;23.318;2022-09-17T07:18:10;26.23;;;8.95;;
59008;SDS011;44794;42.652;23.318;2022-09-17T07:20:36;14.35;;;8.30;;
59008;SDS011;44794;42.652;23.318;2022-09-17T07:23:02;15.38;;;7.72;;
59008;SDS011;44794;42.652;23.318;2022-09-17T07:25:28;24.52;;;8.07;;
59008;SDS011;44794;42.652;23.318;2022-09-17T07:27:54;14.65;;;6.55;;
59008;SDS011;44794;42.652;23.318;2022-09-17T07:30:20;14.07;;;5.97;;
59008;SDS011;44794;42.652;23.318;2022-09-17T07:32:46;18.42;;;6.75;;
59008;SDS011;44794;42.652;23.318;2022-09-17T07:35:12;12.98;;;6.18;;
59008;SDS011;44794;42.652;23.318;2022-09-17T07:37:38;14.60;;;6.18;;
59008;SDS011;44794;42.652;23.318;2022-09-17T07:40:03;12.77;;;6.00;;
59008;SDS011;44794;42.652;23.318;2022-09-17T07:42:33;13.98;;;6.32;;
59008;SDS011;44794;42.652;23.318;2022-09-17T07:44:59;11.02;;;5.22;;
59008;SDS011;44794;42.652;23.318;2022-09-17T07:47:24;13.35;;;6.10;;
59008;SDS011;44794;42.652;23.318;2022-09-17T07:49:50;13.55;;;6.82;;
59008;SDS011;44794;42.652;23.318;2022-09-17T07:52:15;12.95;;;6.35;;
59008;SDS011;44794;42.652;23.318;2022-09-17T07:54:41;16.60;;;6.63;;
59008;SDS011;44794;42.652;23.318;2022-09-17T07:57:06;15.95;;;6.85;;
59008;SDS011;44794;42.652;23.318;2022-09-17T07:59:32;20.92;;;7.35;;
59008;SDS011;44794;42.652;23.318;2022-09-17T08:01:57;14.05;;;7.30;;
59008;SDS011;44794;42.652;23.318;2022-09-17T08:04:23;19.75;;;7.57;;
59008;SDS011;44794;42.652;23.318;2022-09-17T08:06:48;13.95;;;6.55;;
59008;SDS011;44794;42.652;23.318;2022-09-17T08:09:14;12.85;;;6.80;;
59008;SDS011;44794;42.652;23.318;2022-09-17T08:11:41;18.13;;;6.88;;
59008;SDS011;44794;42.652;23.318;2022-09-17T08:14:10;10.68;;;5.65;;
59008;SDS011;44794;42.652;23.318;2022-09-17T08:16:37;16.60;;;6.38;;
59008;SDS011;44794;42.652;23.318;2022-09-17T08:19:03;16.05;;;6.05;;
59008;SDS011;44794;42.652;23.318;2022-09-17T08:21:29;15.77;;;6.13;;
59008;SDS011;44794;42.652;23.318;2022-09-17T08:23:54;16.35;;;6.05;;
59008;SDS011;44794;42.652;23.318;2022-09-17T08:26:21;16.25;;;6.47;;
59008;SDS011;44794;42.652;23.318;2022-09-17T08:28:51;14.80;;;5.45;;
59008;SDS011;44794;42.652;23.318;2022-09-17T08:31:21;13.55;;;4.57;;
59008;SDS011;44794;42.652;23.318;2022-09-17T08:33:48;10.13;;;3.83;;
59008;SDS011;44794;42.652;23.318;2022-09-17T08:36:14;10.25;;;4.10;;
59008;SDS011;44794;42.652;23.318;2022-09-17T08:38:41;7.45;;;4.20;;
59008;SDS011;44794;42.652;23.318;2022-09-17T09:00:25;10.30;;;3.50;;
59008;SDS011;44794;42.652;23.318;2022-09-17T09:05:56;7.30;;;2.92;;
59008;SDS011;44794;42.652;23.318;2022-09-17T09:11:22;13.18;;;3.80;;
59008;SDS011;44794;42.652;23.318;2022-09-17T09:13:56;10.10;;;3.95;;
59008;SDS011;44794;42.652;23.318;2022-09-17T09:16:30;11.60;;;3.88;;
59008;SDS011;44794;42.652;23.318;2022-09-17T09:19:31;8.60;;;4.50;;
59008;SDS011;44794;42.652;23.318;2022-09-17T09:24:23;13.63;;;5.03;;
59008;SDS011;44794;42.652;23.318;2022-09-17T09:27:02;14.48;;;5.25;;
59008;SDS011;44794;42.652;23.318;2022-09-17T09:32:27;11.93;;;5.57;;
59008;SDS011;44794;42.652;23.318;2022-09-17T09:35:15;13.23;;;5.13;;
59008;SDS011;44794;42.652;23.318;2022-09-17T09:37:43;10.55;;;5.10;;
59008;SDS011;44794;42.652;23.318;2022-09-17T09:40:22;12.13;;;5.55;;
59008;SDS011;44794;42.652;23.318;2022-09-17T09:42:59;18.45;;;7.70;;
59008;SDS011;44794;42.652;23.318;2022-09-17T09:45:36;10.32;;;5.47;;
59008;SDS011;44794;42.652;23.318;2022-09-17T09:48:28;11.85;;;6.53;;
59008;SDS011;44794;42.652;23.318;2022-09-17T09:51:19;15.00;;;6.13;;
59008;SDS011;44794;42.652;23.318;2022-09-17T09:56:54;14.55;;;6.90;;
59008;SDS011;44794;42.652;23.318;2022-09-17T09:59:23;19.83;;;8.07;;
59008;SDS011;44794;42.652;23.318;2022-09-17T10:01:50;27.35;;;8.50;;
59008;SDS011;44794;42.652;23.318;2022-09-17T10:07:00;22.38;;;9.32;;
59008;SDS011;44794;42.652;23.318;2022-09-17T10:09:28;18.58;;;8.68;;
59008;SDS011;44794;42.652;23.318;2022-09-17T10:14:29;19.20;;;9.40;;
59008;SDS011;44794;42.652;23.318;2022-09-17T10:19:41;23.98;;;11.45;;
59008;SDS011;44794;42.652;23.318;2022-09-17T10:24:59;22.60;;;10.98;;
59008;SDS011;44794;42.652;23.318;2022-09-17T10:27:26;18.80;;;12.70;;
59008;SDS011;44794;42.652;23.318;2022-09-17T10:30:14;17.42;;;9.73;;
59008;SDS011;44794;42.652;23.318;2022-09-17T10:32:39;21.88;;;8.50;;
59008;SDS011;44794;42.652;23.318;2022-09-17T10:35:23;20.83;;;9.32;;
59008;SDS011;44794;42.652;23.318;2022-09-17T10:37:52;15.60;;;8.23;;
59008;SDS011;44794;42.652;23.318;2022-09-17T10:42:50;13.27;;;8.00;;
59008;SDS011;44794;42.652;23.318;2022-09-17T10:45:36;13.13;;;8.02;;
59008;SDS011;44794;42.652;23.318;2022-09-17T10:48:04;17.35;;;9.20;;
59008;SDS011;44794;42.652;23.318;2022-09-17T10:50:38;17.25;;;10.23;;
59008;SDS011;44794;42.652;23.318;2022-09-17T10:53:05;13.15;;;9.30;;
59008;SDS011;44794;42.652;23.318;2022-09-17T10:55:41;13.43;;;8.10;;
59008;SDS011;44794;42.652;23.318;2022-09-17T10:58:26;16.75;;;8.15;;
59008;SDS011;44794;42.652;23.318;2022-09-17T11:03:48;10.93;;;5.20;;
59008;SDS011;44794;42.652;23.318;2022-09-17T11:14:29;10.35;;;4.20;;
59008;SDS011;44794;42.652;23.318;2022-09-17T11:27:49;10.00;;;5.70;;
59008;SDS011;44794;42.652;23.318;2022-09-17T11:30:21;10.02;;;5.18;;
59008;SDS011;44794;42.652;23.318;2022-09-17T11:35:47;9.95;;;6.20;;
59008;SDS011;44794;42.652;23.318;2022-09-17T11:38:28;15.30;;;7.57;;
59008;SDS011;44794;42.652;23.318;2022-09-17T11:40:59;10.40;;;5.88;;
59008;SDS011;44794;42.652;23.318;2022-09-17T11:43:37;7.07;;;4.63;;
59008;SDS011;44794;42.652;23.318;2022-09-17T11:46:16;6.82;;;4.55;;
59008;SDS011;44794;42.652;23.318;2022-09-17T11:49:03;9.98;;;5.60;;
59008;SDS011;44794;42.652;23.318;2022-09-17T11:51:35;11.00;;;5.20;;
59008;SDS011;44794;42.652;23.318;2022-09-17T11:56:44;9.55;;;6.00;;
59008;SDS011;44794;42.652;23.318;2022-09-17T12:01:40;12.73;;;6.72;;
59008;SDS011;44794;42.652;23.318;2022-09-17T12:12:43;9.93;;;5.78;;
59008;SDS011;44794;42.652;23.318;2022-09-17T12:15:21;9.68;;;5.20;;
59008;SDS011;44794;42.652;23.318;2022-09-17T12:20:35;14.25;;;6.95;;
59008;SDS011;44794;42.652;23.318;2022-09-17T12:23:05;13.05;;;8.15;;
59008;SDS011;44794;42.652;23.318;2022-09-17T12:25:39;9.02;;;6.13;;
59008;SDS011;44794;42.652;23.318;2022-09-17T12:28:52;9.63;;;5.03;;
59008;SDS011;44794;42.652;23.318;2022-09-17T12:31:41;14.25;;;8.40;;
59008;SDS011;44794;42.652;23.318;2022-09-17T12:34:18;12.38;;;7.60;;
59008;SDS011;44794;42.652;23.318;2022-09-17T12:37:19;9.00;;;3.85;;
59008;SDS011;44794;42.652;23.318;2022-09-17T12:42:16;5.68;;;3.20;;
59008;SDS011;44794;42.652;23.318;2022-09-17T12:53:07;1.83;;;1.02;;
59008;SDS011;44794;42.652;23.318;2022-09-17T12:58:27;3.70;;;1.00;;
59008;SDS011;44794;42.652;23.318;2022-09-17T13:01:09;4.15;;;1.20;;
59008;SDS011;44794;42.652;23.318;2022-09-17T13:03:43;5.90;;;1.30;;
59008;SDS011;44794;42.652;23.318;2022-09-17T13:09:05;2.38;;;1.20;;
59008;SDS011;44794;42.652;23.318;2022-09-17T13:11:42;4.85;;;1.83;;
59008;SDS011;44794;42.652;23.318;2022-09-17T13:17:06;2.65;;;0.95;;
59008;SDS011;44794;42.652;23.318;2022-09-17T13:19:48;3.17;;;1.40;;
59008;SDS011;44794;42.652;23.318;2022-09-17T13:22:25;2.00;;;1.70;;
59008;SDS011;44794;42.652;23.318;2022-09-17T13:25:07;11.40;;;2.50;;
59008;SDS011;44794;42.652;23.318;2022-09-17T13:27:35;7.15;;;3.65;;
59008;SDS011;44794;42.652;23.318;2022-09-17T13:30:03;7.20;;;3.72;;
59008;SDS011;44794;42.652;23.318;2022-09-17T13:37:33;4.53;;;1.48;;
59008;SDS011;44794;42.652;23.318;2022-09-17T13:40:03;1.95;;;1.20;;
59008;SDS011;44794;42.652;23.318;2022-09-17T13:42:41;4.00;;;1.10;;
59008;SDS011;44794;42.652;23.318;2022-09-17T13:45:14;2.55;;;1.10;;
59008;SDS011;44794;42.652;23.318;2022-09-17T13:47:48;1.52;;;1.20;;
59008;SDS011;44794;42.652;23.318;2022-09-17T13:52:52;4.55;;;0.82;;
59008;SDS011;44794;42.652;23.318;2022-09-17T13:57:55;3.80;;;1.10;;
59008;SDS011;44794;42.652;23.318;2022-09-17T14:13:45;3.83;;;2.20;;
59008;SDS011;44794;42.652;23.318;2022-09-17T14:18:58;4.43;;;2.20;;
59008;SDS011;44794;42.652;23.318;2022-09-17T14:21:30;4.50;;;3.22;;
59008;SDS011;44794;42.652;23.318;2022-09-17T14:24:12;5.70;;;3.33;;
59008;SDS011;44794;42.652;23.318;2022-09-17T14:32:09;5.25;;;3.05;;
59008;SDS011;44794;42.652;23.318;2022-09-17T14:34:39;6.75;;;3.17;;
59008;SDS011;44794;42.652;23.318;2022-09-17T14:37:07;6.50;;;2.92;;
59008;SDS011;44794;42.652;23.318;2022-09-17T14:39:37;5.85;;;2.83;;
59008;SDS011;44794;42.652;23.318;2022-09-17T14:42:04;7.53;;;3.13;;
59008;SDS011;44794;42.652;23.318;2022-09-17T14:44:36;5.38;;;3.10;;
59008;SDS011;44794;42.652;23.318;2022-09-17T14:47:12;6.40;;;3.20;;
59008;SDS011;44794;42.652;23.318;2022-09-17T14:49:41;7.82;;;3.30;;
59008;SDS011;44794;42.652;23.318;2022-09-17T14:52:26;6.78;;;3.53;;
59008;SDS011;44794;42.652;23.318;2022-09-17T14:57:42;5.97;;;4.00;;
59008;SDS011;44794;42.652;23.318;2022-09-17T15:00:17;8.43;;;3.88;;
59008;SDS011;44794;42.652;23.318;2022-09-17T15:02:48;9.23;;;4.45;;
59008;SDS011;44794;42.652;23.318;2022-09-17T15:13:25;7.55;;;3.50;;
59008;SDS011;44794;42.652;23.318;2022-09-17T15:16:03;9.55;;;3.95;;
59008;SDS011;44794;42.652;23.318;2022-09-17T15:18:43;5.80;;;3.55;;
59008;SDS011;44794;42.652;23.318;2022-09-17T15:21:22;5.35;;;3.67;;
59008;SDS011;44794;42.652;23.318;2022-09-17T15:23:51;7.65;;;3.90;;
59008;SDS011;44794;42.652;23.318;2022-09-17T15:26:21;7.75;;;2.90;;
59008;SDS011;44794;42.652;23.318;2022-09-17T15:28:53;7.55;;;3.47;;
59008;SDS011;44794;42.652;23.318;2022-09-17T15:31:23;7.22;;;3.70;;
59008;SDS011;44794;42.652;23.318;2022-09-17T15:33:52;12.75;;;4.95;;
59008;SDS011;44794;42.652;23.318;2022-09-17T15:36:22;13.02;;;4.90;;
59008;SDS011;44794;42.652;23.318;2022-09-17T15:38:49;7.25;;;3.95;;
59008;SDS011;44794;42.652;23.318;2022-09-17T15:46:50;7.13;;;3.85;;
59008;SDS011;44794;42.652;23.318;2022-09-17T15:49:32;5.22;;;3.00;;
59008;SDS011;44794;42.652;23.318;2022-09-17T15:54:52;10.40;;;3.83;;
59008;SDS011;44794;42.652;23.318;2022-09-17T15:57:17;9.93;;;4.88;;
59008;SDS011;44794;42.652;23.318;2022-09-17T15:59:46;10.13;;;4.90;;
59008;SDS011;44794;42.652;23.318;2022-09-17T16:02:26;6.32;;;4.47;;
59008;SDS011;44794;42.652;23.318;2022-09-17T16:07:37;9.98;;;5.40;;
59008;SDS011;44794;42.652;23.318;2022-09-17T16:10:04;9.35;;;5.10;;
59008;SDS011;44794;42.652;23.318;2022-09-17T16:12:29;8.68;;;4.90;;
59008;SDS011;44794;42.652;23.318;2022-09-17T16:14:56;9.02;;;5.10;;
59008;SDS011;44794;42.652;23.318;2022-09-17T16:17:30;7.80;;;4.85;;
59008;SDS011;44794;42.652;23.318;2022-09-17T16:19:57;9.52;;;4.35;;
59008;SDS011;44794;42.652;23.318;2022-09-17T16:22:24;10.85;;;3.70;;
59008;SDS011;44794;42.652;23.318;2022-09-17T16:24:50;10.07;;;5.63;;
59008;SDS011;44794;42.652;23.318;2022-09-17T16:27:20;9.82;;;3.83;;
59008;SDS011;44794;42.652;23.318;2022-09-17T16:29:48;12.40;;;6.30;;
59008;SDS011;44794;42.652;23.318;2022-09-17T16:32:16;6.85;;;4.20;;
59008;SDS011;44794;42.652;23.318;2022-09-17T16:34:42;8.68;;;3.58;;
59008;SDS011;44794;42.652;23.318;2022-09-17T16:37:08;6.45;;;3.70;;
59008;SDS011;44794;42.652;23.318;2022-09-17T16:39:35;5.90;;;3.55;;
59008;SDS011;44794;42.652;23.318;2022-09-17T16:42:00;6.95;;;3.35;;
59008;SDS011;44794;42.652;23.318;2022-09-17T16:44:26;6.95;;;3.80;;
59008;SDS011;44794;42.652;23.318;2022-09-17T16:46:51;7.65;;;4.07;;
59008;SDS011;44794;42.652;23.318;2022-09-17T16:49:16;9.25;;;3.72;;
59008;SDS011;44794;42.652;23.318;2022-09-17T16:51:42;8.10;;;5.15;;
59008;SDS011;44794;42.652;23.318;2022-09-17T16:54:07;12.93;;;6.50;;
59008;SDS011;44794;42.652;23.318;2022-09-17T16:56:33;11.45;;;5.85;;
59008;SDS011;44794;42.652;23.318;2022-09-17T16:58:59;11.68;;;6.05;;
59008;SDS011;44794;42.652;23.318;2022-09-17T17:01:24;8.05;;;4.32;;
59008;SDS011;44794;42.652;23.318;2022-09-17T17:03:50;8.45;;;4.25;;
59008;SDS011;44794;42.652;23.318;2022-09-17T17:06:17;13.25;;;5.60;;
59008;SDS011;44794;42.652;23.318;2022-09-17T17:08:43;10.63;;;5.03;;
59008;SDS011;44794;42.652;23.318;2022-09-17T17:11:09;8.00;;;4.40;;
59008;SDS011;44794;42.652;23.318;2022-09-17T17:13:34;8.52;;;4.45;;
59008;SDS011;44794;42.652;23.318;2022-09-17T17:16:09;7.18;;;4.00;;
59008;SDS011;44794;42.652;23.318;2022-09-17T17:18:36;4.65;;;3.63;;
59008;SDS011;44794;42.652;23.318;2022-09-17T17:21:05;5.80;;;3.60;;
59008;SDS011;44794;42.652;23.318;2022-09-17T17:23:32;6.03;;;3.08;;
59008;SDS011;44794;42.652;23.318;2022-09-17T17:25:58;4.97;;;3.05;;
59008;SDS011;44794;42.652;23.318;2022-09-17T17:28:24;5.18;;;2.95;;
59008;SDS011;44794;42.652;23.318;2022-09-17T17:30:49;5.43;;;3.10;;
59008;SDS011;44794;42.652;23.318;2022-09-17T17:33:15;7.65;;;3.20;;
59008;SDS011;44794;42.652;23.318;2022-09-17T17:35:40;7.72;;;3.40;;
59008;SDS011;44794;42.652;23.318;2022-09-17T17:38:05;5.40;;;3.20;;
59008;SDS011;44794;42.652;23.318;2022-09-17T17:40:31;5.30;;;3.25;;
59008;SDS011;44794;42.652;23.318;2022-09-17T17:42:56;6.57;;;2.83;;
59008;SDS011;44794;42.652;23.318;2022-09-17T17:45:22;4.30;;;2.95;;
59008;SDS011;44794;42.652;23.318;2022-09-17T17:47:47;4.43;;;3.00;;
59008;SDS011;44794;42.652;23.318;2022-09-17T17:50:13;7.47;;;3.88;;
59008;SDS011;44794;42.652;23.318;2022-09-17T17:52:39;7.72;;;3.67;;
59008;SDS011;44794;42.652;23.318;2022-09-17T17:55:08;5.65;;;3.88;;
59008;SDS011;44794;42.652;23.318;2022-09-17T17:57:34;7.03;;;4.05;;
59008;SDS011;44794;42.652;23.318;2022-09-17T17:59:59;5.05;;;4.00;;
59008;SDS011;44794;42.652;23.318;2022-09-17T18:02:25;7.07;;;3.67;;
59008;SDS011;44794;42.652;23.318;2022-09-17T18:04:51;6.82;;;3.85;;